createdAt,value
2019-01-02T00:00:27.268Z,57.23
2019-01-02T00:05:30.636Z,57.74
2019-01-02T00:10:33.919Z,57.18
2019-01-02T00:15:37.409Z,57.71
2019-01-02T00:20:40.686Z,56.27
2019-01-02T00:25:44.167Z,57.40
2019-01-02T00:30:47.469Z,58.37
2019-01-02T00:35:50.840Z,59.11
2019-01-02T00:40:54.238Z,59.95
2019-01-02T00:45:57.521Z,60.75
2019-01-02T00:51:00.919Z,60.09
2019-01-02T00:56:04.202Z,60.56
2019-01-02T01:01:07.564Z,59.94
2019-01-02T01:06:10.839Z,58.84
2019-01-02T01:11:14.124Z,59.40
2019-01-02T01:16:17.532Z,59.78
2019-01-02T01:21:20.777Z,65.35
2019-01-02T01:26:24.193Z,65.21
2019-01-02T01:31:27.465Z,65.24
2019-01-02T01:36:30.834Z,64.69
2019-01-02T01:41:34.188Z,64.30
2019-01-02T01:46:37.585Z,63.16
2019-01-02T01:51:40.874Z,61.50
2019-01-02T01:56:44.209Z,63.03
2019-01-02T02:01:47.588Z,63.27
2019-01-02T02:06:50.854Z,63.35
2019-01-02T02:11:54.282Z,63.54
2019-01-02T02:16:57.552Z,61.80
2019-01-02T02:22:01.023Z,61.16
2019-01-02T02:27:04.418Z,60.63
2019-01-02T02:32:07.905Z,60.30
2019-01-02T02:37:11.214Z,60.31
2019-01-02T02:42:14.468Z,60.32
2019-01-02T02:47:18.037Z,61.46
2019-01-02T02:52:21.430Z,63.02
2019-01-02T02:57:24.720Z,64.03
2019-01-02T03:02:28.051Z,64.01
2019-01-02T03:07:31.349Z,64.08
2019-01-02T03:12:34.800Z,64.29
2019-01-02T03:17:38.078Z,64.14
2019-01-02T03:22:41.404Z,64.85
2019-01-02T03:27:44.850Z,64.46
2019-01-02T03:32:48.165Z,64.98
2019-01-02T03:37:51.471Z,65.01
2019-01-02T03:42:55.037Z,65.21
2019-01-02T03:47:58.316Z,65.19
2019-01-02T03:53:01.585Z,64.58
2019-01-02T03:58:04.863Z,64.50
2019-01-02T04:03:08.487Z,63.87
2019-01-02T04:08:13.303Z,64.47
2019-01-02T04:13:16.647Z,64.92
2019-01-02T04:18:19.900Z,65.12
2019-01-02T04:23:23.247Z,66.25
2019-01-02T04:28:26.656Z,66.49
2019-01-02T04:33:29.960Z,66.45
2019-01-02T04:38:33.317Z,67.93
2019-01-02T04:43:36.831Z,67.54
2019-01-02T04:48:40.106Z,67.77
2019-01-02T04:53:43.389Z,67.31
2019-01-02T04:58:46.865Z,66.75
2019-01-02T05:03:50.187Z,66.23
2019-01-02T05:08:53.482Z,66.35
2019-01-02T05:13:56.839Z,66.91
2019-01-02T05:19:04.068Z,67.34
2019-01-02T05:24:07.332Z,67.68
2019-01-02T05:29:10.691Z,67.61
2019-01-02T05:34:13.971Z,67.50
2019-01-02T05:39:17.392Z,67.18
2019-01-02T05:44:20.652Z,66.90
2019-01-02T05:49:23.959Z,66.18
2019-01-02T05:54:27.235Z,65.44
2019-01-02T05:59:30.859Z,64.83
2019-01-02T06:04:34.465Z,64.67
2019-01-02T06:09:37.756Z,64.50
2019-01-02T06:14:41.055Z,64.14
2019-01-02T06:19:44.309Z,63.73
2019-01-02T06:24:47.561Z,64.11
2019-01-02T06:29:50.841Z,63.70
2019-01-02T06:34:54.240Z,63.99
2019-01-02T06:39:57.502Z,64.26
2019-01-02T06:45:00.756Z,64.30
2019-01-02T06:50:04.976Z,63.85
2019-01-02T06:55:08.271Z,64.39
2019-01-02T07:00:15.069Z,64.21
2019-01-02T07:05:18.380Z,64.16
2019-01-02T07:10:21.787Z,64.26
2019-01-02T07:15:25.052Z,63.95
2019-01-02T07:20:28.417Z,63.28
2019-01-02T07:25:31.676Z,63.39
2019-01-02T07:30:35.012Z,62.86
2019-01-02T07:36:22.208Z,63.08
2019-01-02T07:41:42.577Z,63.45
2019-01-02T07:49:04.957Z,63.32
2019-01-02T07:54:30.103Z,63.35
2019-01-02T07:59:44.852Z,63.26
2019-01-02T08:05:00.975Z,62.83
2019-01-02T08:12:19.723Z,62.98
2019-01-02T08:17:37.716Z,63.40
2019-01-02T08:24:54.024Z,63.26
2019-01-02T08:30:23.050Z,63.75
2019-01-02T08:37:40.404Z,63.45
2019-01-02T08:43:05.175Z,62.80
2019-01-02T08:48:23.888Z,62.74
2019-01-02T08:53:39.221Z,62.49
2019-01-02T08:59:02.059Z,62.01
2019-01-02T09:04:33.872Z,61.66
2019-01-02T09:10:17.868Z,60.87
2019-01-02T09:19:34.258Z,60.66
2019-01-02T09:24:46.168Z,59.11
2019-01-02T09:32:02.060Z,59.67
2019-01-02T09:37:20.196Z,59.53
2019-01-02T09:42:36.505Z,59.43
2019-01-02T09:48:53.054Z,58.67
2019-01-02T09:54:15.417Z,58.05
2019-01-02T10:00:34.638Z,56.83
2019-01-02T10:05:49.822Z,57.49
2019-01-02T10:11:08.938Z,57.36
2019-01-02T10:16:33.927Z,57.68
2019-01-02T10:21:51.103Z,58.94
2019-01-02T10:27:19.689Z,62.00
2019-01-02T10:32:37.208Z,65.60
2019-01-02T10:39:53.529Z,65.25
2019-01-02T10:45:21.944Z,64.26
2019-01-02T10:52:40.949Z,63.08
2019-01-02T10:58:23.893Z,64.07
2019-01-02T11:03:44.153Z,64.47
2019-01-02T11:08:58.992Z,64.34
2019-01-02T11:14:14.107Z,63.57
2019-01-02T11:19:28.277Z,60.37
2019-01-02T11:24:45.418Z,59.99
2019-01-02T11:30:02.200Z,57.34
2019-01-02T11:35:24.175Z,56.51
2019-01-02T11:40:41.730Z,56.08
2019-01-02T11:45:45.271Z,54.52
2019-01-02T11:50:48.595Z,53.81
2019-01-02T11:55:51.868Z,53.46
2019-01-02T12:00:55.370Z,52.34
2019-01-02T12:05:58.840Z,53.67
2019-01-02T12:11:02.293Z,56.65
2019-01-02T12:16:05.611Z,56.60
2019-01-02T12:21:08.888Z,57.22
2019-01-02T12:26:12.279Z,57.43
2019-01-02T12:31:15.635Z,57.28
2019-01-02T12:36:19.157Z,55.22
2019-01-02T12:41:22.742Z,54.90
2019-01-02T12:46:26.243Z,54.61
2019-01-02T12:51:29.736Z,53.15
2019-01-02T12:56:33.324Z,57.72
2019-01-02T13:01:52.068Z,60.09
2019-01-02T13:07:21.992Z,59.23
2019-01-02T13:12:40.330Z,57.39
2019-01-02T13:19:05.026Z,55.20
2019-01-02T13:24:23.615Z,53.93
2019-01-02T13:29:41.969Z,58.81
2019-01-02T13:35:59.701Z,65.39
2019-01-02T13:41:47.216Z,63.02
2019-01-02T13:47:09.245Z,62.08
2019-01-02T13:52:12.711Z,59.36
2019-01-02T13:57:16.297Z,57.76
2019-01-02T14:02:19.861Z,57.61
2019-01-02T14:07:23.392Z,57.32
2019-01-02T14:12:26.864Z,56.66
2019-01-02T14:17:30.377Z,56.03
2019-01-02T14:22:33.870Z,55.16
2019-01-02T14:27:37.392Z,54.90
2019-01-02T14:32:40.821Z,55.07
2019-01-02T14:37:44.444Z,54.90
2019-01-02T14:42:47.808Z,54.07
2019-01-02T14:47:51.356Z,54.69
2019-01-02T14:52:54.848Z,54.15
2019-01-02T14:57:58.393Z,54.07
2019-01-02T15:03:01.924Z,54.60
2019-01-02T15:08:05.436Z,53.94
2019-01-02T15:13:08.960Z,53.72
2019-01-02T15:18:12.500Z,55.05
2019-01-02T15:23:15.987Z,55.72
2019-01-02T15:28:19.520Z,56.29
2019-01-02T15:33:23.005Z,55.96
2019-01-02T15:38:26.412Z,55.75
2019-01-02T15:43:29.809Z,56.11
2019-01-02T15:48:33.365Z,55.53
2019-01-02T15:53:36.771Z,53.76
2019-01-02T15:58:41.377Z,55.38
2019-01-02T16:03:45.172Z,54.05
2019-01-02T16:08:48.643Z,54.57
2019-01-02T16:13:52.427Z,55.29
2019-01-02T16:18:56.657Z,55.55
2019-01-02T16:24:00.180Z,56.79
2019-01-02T16:29:03.785Z,55.18
2019-01-02T16:34:07.378Z,55.23
2019-01-02T16:39:10.900Z,56.43
2019-01-02T16:44:14.404Z,56.03
2019-01-02T16:49:17.800Z,55.92
2019-01-02T16:54:21.423Z,56.56
2019-01-02T16:59:24.842Z,56.24
2019-01-02T17:04:29.385Z,56.28
2019-01-02T17:09:32.884Z,56.17
2019-01-02T17:14:36.476Z,56.28
2019-01-02T17:19:42.068Z,57.54
2019-01-02T17:24:45.667Z,58.32
2019-01-02T17:29:49.361Z,58.67
2019-01-02T17:34:52.961Z,58.04
2019-01-02T17:39:57.495Z,58.34
2019-01-02T17:45:01.059Z,58.12
2019-01-02T17:50:05.024Z,58.21
2019-01-02T17:55:08.562Z,58.56
2019-01-02T18:00:13.025Z,58.22
2019-01-02T18:05:16.733Z,58.37
2019-01-02T18:10:20.176Z,57.48
2019-01-02T18:15:23.720Z,55.99
2019-01-02T18:20:28.075Z,54.19
2019-01-02T18:25:31.460Z,54.88
2019-01-02T18:30:34.920Z,55.13
2019-01-02T18:35:38.815Z,56.26
2019-01-02T18:40:42.374Z,56.69
2019-01-02T18:45:45.967Z,57.97
2019-01-02T18:50:50.439Z,58.33
2019-01-02T18:55:54.004Z,58.55
2019-01-02T19:00:57.492Z,58.57
2019-01-02T19:06:02.480Z,58.76
2019-01-02T19:11:06.085Z,58.19
2019-01-02T19:16:09.499Z,57.69
2019-01-02T19:21:13.699Z,58.16
2019-01-02T19:26:20.258Z,58.22
2019-01-02T19:31:24.044Z,58.45
2019-01-02T19:36:27.616Z,58.37
2019-01-02T19:41:31.137Z,57.64
2019-01-02T19:46:34.598Z,58.05
2019-01-02T19:51:38.116Z,57.05
2019-01-02T19:56:41.839Z,56.79
2019-01-02T20:01:46.716Z,56.48
2019-01-02T20:06:50.343Z,56.86
2019-01-02T20:11:54.092Z,56.65
2019-01-02T20:16:57.521Z,56.84
2019-01-02T20:22:01.697Z,57.56
2019-01-02T20:27:05.717Z,57.93
2019-01-02T20:32:09.252Z,58.42
2019-01-02T20:37:12.704Z,58.63
2019-01-02T20:42:16.314Z,58.59
2019-01-02T20:47:19.748Z,58.12
2019-01-02T20:52:23.292Z,57.91
2019-01-02T20:57:26.782Z,56.77
2019-01-02T21:02:30.152Z,57.77
2019-01-02T21:07:33.732Z,57.53
2019-01-02T21:12:37.254Z,57.82
2019-01-02T21:17:40.801Z,58.13
2019-01-02T21:22:44.201Z,58.65
2019-01-02T21:27:47.769Z,58.57
2019-01-02T21:32:51.153Z,57.36
2019-01-02T21:37:54.719Z,55.30
2019-01-02T21:42:58.122Z,52.93
2019-01-02T21:48:01.569Z,53.17
2019-01-02T21:53:05.247Z,52.90
2019-01-02T21:58:08.637Z,53.68
2019-01-02T22:03:13.565Z,54.19
2019-01-02T22:08:17.279Z,56.37
2019-01-02T22:13:20.933Z,56.77
2019-01-02T22:18:24.645Z,56.68
2019-01-02T22:23:28.319Z,55.97
2019-01-02T22:28:32.241Z,57.25
2019-01-02T22:33:36.384Z,57.21
2019-01-02T22:38:40.587Z,57.40
2019-01-02T22:43:47.292Z,57.21
2019-01-02T22:48:51.549Z,57.76
2019-01-02T22:53:54.808Z,57.86
2019-01-02T22:58:58.122Z,58.39
2019-01-02T23:04:08.387Z,58.91
2019-01-02T23:09:18.152Z,57.90
2019-01-02T23:14:27.176Z,58.08
2019-01-02T23:21:37.595Z,57.25
2019-01-02T23:26:47.905Z,56.88
2019-01-02T23:31:55.510Z,56.99
2019-01-02T23:39:05.029Z,55.86
2019-01-02T23:44:29.412Z,55.23
2019-01-02T23:51:42.376Z,56.03
2019-01-02T23:56:50.880Z,56.61
